Abernathy, Texas
Current Conditions -  °F | °C
As of 2:53 PM on Tuesday 27 Jan 2015 (Local Time) from KLBB Reporting Station
Scattered Clouds Scattered Clouds  
Wind Chill: 73°   Ceiling: Unl
Heat Index: 73°   Visibility: 10mi
Dew Point: 31°   Wind: 13mph
Humidity: 21%   Direction: 250°WSW
Pressure: 30.17"   Gusts: NA
Location:  33.83°N, 101.84°W
Report Text: KLBB 272053Z 25011KT 10SM FEW220 SCT260 SCT300 23/M01 A3017 RMK AO2 SLP192 T02281006 56026
Loading
Personal Weather Stations






























Interactive Weather Map New forecast layout! Learn more

10-Day Weather Forecast

Advertisements
Track Severe Weather on mobile